createdAt,value
2022-08-05T00:01:01.030Z,76.78
2022-08-05T00:03:53.977Z,76.73
2022-08-05T00:06:35.887Z,77.04
2022-08-05T00:09:13.216Z,76.82
2022-08-05T00:11:56.054Z,77.11
2022-08-05T00:14:35.935Z,77.09
2022-08-05T00:17:19.336Z,77.10
2022-08-05T00:20:02.741Z,77.31
2022-08-05T00:22:39.292Z,77.70
2022-08-05T00:25:23.249Z,77.90
2022-08-05T00:28:00.051Z,77.80
2022-08-05T00:30:36.365Z,77.88
2022-08-05T00:34:42.181Z,78.04
2022-08-05T00:36:16.119Z,78.13
2022-08-05T00:39:13.374Z,78.37
2022-08-05T00:41:55.574Z,78.35
2022-08-05T00:44:31.902Z,78.46
2022-08-05T00:47:08.301Z,78.50
2022-08-05T00:49:51.715Z,78.47
2022-08-05T00:52:28.722Z,78.53
2022-08-05T00:55:06.103Z,78.66
2022-08-05T00:57:58.100Z,78.80
2022-08-05T01:00:35.536Z,78.78
2022-08-05T01:03:22.981Z,78.92
2022-08-05T01:05:59.365Z,79.00
2022-08-05T01:08:42.951Z,79.03
2022-08-05T01:11:33.667Z,79.10
2022-08-05T01:14:27.741Z,79.25
2022-08-05T01:17:10.707Z,79.73
2022-08-05T01:20:01.275Z,80.04
2022-08-05T01:23:14.419Z,80.21
2022-08-05T01:26:31.118Z,80.45
2022-08-05T01:29:12.262Z,80.44
2022-08-05T01:31:55.885Z,80.43
2022-08-05T01:34:39.336Z,80.53
2022-08-05T01:37:25.471Z,80.72
2022-08-05T01:40:06.711Z,80.88
2022-08-05T01:42:46.368Z,81.09
2022-08-05T01:45:24.701Z,81.17
2022-08-05T01:48:05.007Z,81.22
2022-08-05T01:50:51.078Z,81.21
2022-08-05T01:53:54.576Z,81.22
2022-08-05T01:58:11.074Z,81.18
2022-08-05T01:59:29.238Z,80.95
2022-08-05T02:02:10.764Z,80.93
2022-08-05T02:04:49.815Z,80.97
2022-08-05T02:07:26.238Z,80.99
2022-08-05T02:10:08.415Z,80.88
2022-08-05T02:12:54.850Z,80.82
2022-08-05T02:15:41.866Z,80.87
2022-08-05T02:18:34.810Z,80.91
2022-08-05T02:21:18.945Z,80.92
2022-08-05T02:24:03.027Z,80.96
2022-08-05T02:26:51.924Z,80.89
2022-08-05T02:29:58.649Z,80.90
2022-08-05T02:32:35.428Z,81.01
2022-08-05T02:35:27.644Z,80.82
2022-08-05T02:38:12.113Z,80.86
2022-08-05T02:40:56.371Z,80.80
2022-08-05T02:43:35.461Z,81.00
2022-08-05T02:46:33.165Z,81.07
2022-08-05T02:49:14.406Z,81.15
2022-08-05T02:52:03.532Z,81.34
2022-08-05T02:54:52.152Z,81.28
2022-08-05T02:58:12.295Z,81.15
2022-08-05T03:00:27.283Z,81.21
2022-08-05T03:03:10.282Z,81.40
2022-08-05T03:06:54.539Z,81.60
2022-08-05T03:08:45.975Z,81.60
2022-08-05T03:11:57.588Z,81.68
2022-08-05T03:14:26.798Z,81.88
2022-08-05T03:17:07.360Z,81.91
2022-08-05T03:19:45.879Z,82.06
2022-08-05T03:22:32.310Z,82.15
2022-08-05T03:25:32.044Z,82.19
2022-08-05T03:28:09.983Z,82.18
2022-08-05T03:30:47.652Z,82.18
2022-08-05T03:33:24.133Z,82.21
2022-08-05T03:36:30.032Z,82.27
2022-08-05T03:39:20.195Z,82.51
2022-08-05T03:42:03.582Z,82.92
2022-08-05T03:44:40.572Z,83.00
2022-08-05T03:47:16.565Z,83.00
2022-08-05T03:49:52.650Z,82.96
2022-08-05T03:54:59.406Z,82.77
2022-08-05T03:56:01.744Z,81.77
2022-08-05T03:58:46.894Z,80.19
2022-08-05T04:01:26.654Z,78.79
2022-08-05T04:04:11.071Z,77.47
2022-08-05T04:06:51.311Z,75.95
2022-08-05T04:09:29.790Z,73.68
2022-08-05T04:12:23.715Z,71.41
2022-08-05T04:15:01.360Z,69.90
2022-08-05T04:17:56.282Z,67.64
2022-08-05T04:20:34.170Z,65.37
2022-08-05T04:23:12.488Z,64.39
2022-08-05T04:25:57.883Z,62.52
2022-08-05T04:28:36.863Z,60.91
2022-08-05T04:31:38.450Z,59.93
2022-08-05T04:34:31.897Z,58.64
2022-08-05T04:37:10.481Z,57.99
2022-08-05T04:39:47.014Z,56.80
2022-08-05T04:42:29.308Z,56.32
2022-08-05T04:45:05.749Z,55.96
2022-08-05T04:47:42.887Z,55.05
2022-08-05T04:50:37.592Z,54.25
2022-08-05T04:53:21.508Z,53.41
2022-08-05T04:56:32.401Z,53.00
2022-08-05T04:58:53.926Z,52.28
2022-08-05T05:02:05.654Z,52.33
2022-08-05T05:04:26.452Z,51.87
2022-08-05T05:07:03.327Z,51.06
2022-08-05T05:09:39.268Z,51.43
2022-08-05T05:12:17.085Z,51.00
2022-08-05T05:14:53.193Z,50.87
2022-08-05T05:17:55.648Z,50.75
2022-08-05T05:20:28.444Z,50.06
2022-08-05T05:23:08.072Z,49.88
2022-08-05T05:25:45.714Z,49.83
2022-08-05T05:28:24.931Z,48.97
2022-08-05T05:31:00.893Z,48.61
2022-08-05T05:33:59.582Z,48.75
2022-08-05T05:36:37.925Z,48.88
2022-08-05T05:39:14.984Z,48.55
2022-08-05T05:41:55.208Z,47.42
2022-08-05T05:44:36.368Z,47.63
2022-08-05T05:47:21.465Z,46.76
2022-08-05T05:50:01.401Z,46.58
2022-08-05T05:52:40.570Z,46.60
2022-08-05T05:55:19.321Z,46.20
2022-08-05T05:57:55.311Z,46.09
2022-08-05T06:00:38.215Z,46.30
2022-08-05T06:03:40.171Z,45.43
2022-08-05T06:06:11.692Z,45.34
2022-08-05T06:08:49.276Z,45.33
2022-08-05T06:11:26.491Z,44.72
2022-08-05T06:14:05.434Z,44.83
2022-08-05T06:16:41.415Z,44.75
2022-08-05T06:19:34.079Z,44.29
2022-08-05T06:22:12.346Z,44.72
2022-08-05T06:24:48.905Z,43.58
2022-08-05T06:28:11.173Z,43.15
2022-08-05T06:30:21.469Z,42.92
2022-08-05T06:32:57.867Z,41.57
2022-08-05T06:36:08.093Z,40.95
2022-08-05T06:38:36.134Z,40.95
2022-08-05T06:41:13.095Z,40.50
2022-08-05T06:43:58.488Z,40.01
2022-08-05T06:46:36.276Z,39.70
2022-08-05T06:49:13.387Z,39.49
2022-08-05T06:51:49.960Z,38.74
2022-08-05T06:54:26.047Z,38.19
2022-08-05T06:57:56.718Z,37.86
2022-08-05T06:59:58.332Z,38.47
2022-08-05T07:02:34.431Z,38.75
2022-08-05T07:05:14.244Z,38.57
2022-08-05T07:07:55.833Z,38.09
2022-08-05T07:10:33.176Z,39.26
2022-08-05T07:13:56.703Z,38.77
2022-08-05T07:17:59.256Z,39.04
2022-08-05T07:22:33.200Z,36.69
2022-08-05T07:25:54.250Z,36.83
2022-08-05T07:28:11.745Z,36.57
2022-08-05T07:30:54.824Z,36.00
2022-08-05T07:33:36.622Z,36.31
2022-08-05T07:36:20.643Z,36.28
2022-08-05T07:38:58.578Z,36.44
2022-08-05T07:42:13.102Z,35.69
2022-08-05T07:44:30.749Z,35.02
2022-08-05T07:47:08.002Z,35.45
2022-08-05T07:49:54.634Z,36.07
2022-08-05T07:52:31.036Z,37.08
2022-08-05T07:55:44.405Z,36.38
2022-08-05T07:58:05.201Z,36.26
2022-08-05T08:00:43.307Z,36.19
2022-08-05T08:03:21.712Z,36.39
2022-08-05T08:05:57.934Z,36.54
2022-08-05T08:08:35.252Z,36.70
2022-08-05T08:11:15.916Z,36.58
2022-08-05T08:14:01.114Z,35.82
2022-08-05T08:16:50.150Z,36.14
2022-08-05T08:20:22.151Z,36.17
2022-08-05T08:22:28.315Z,36.28
2022-08-05T08:25:15.837Z,35.62
2022-08-05T08:27:52.885Z,36.62
2022-08-05T08:30:37.682Z,35.68
2022-08-05T08:33:23.895Z,35.65
2022-08-05T08:36:29.322Z,36.04
2022-08-05T08:38:59.341Z,36.28
2022-08-05T08:41:51.736Z,36.03
2022-08-05T08:45:22.868Z,36.00
2022-08-05T08:48:07.589Z,37.04
2022-08-05T08:51:07.615Z,36.34
2022-08-05T08:53:40.330Z,37.13
2022-08-05T08:56:27.108Z,36.43
2022-08-05T08:59:09.784Z,36.60
2022-08-05T09:01:57.564Z,37.20
2022-08-05T09:04:58.451Z,37.74
2022-08-05T09:07:39.457Z,37.38
2022-08-05T09:10:32.000Z,37.47
2022-08-05T09:13:08.456Z,37.38
2022-08-05T09:15:45.611Z,38.01
2022-08-05T09:18:23.003Z,38.23
2022-08-05T09:20:59.199Z,39.33
2022-08-05T09:23:43.571Z,39.01
2022-08-05T09:26:20.721Z,39.26
2022-08-05T09:29:04.701Z,39.63
2022-08-05T09:32:45.820Z,39.60
2022-08-05T09:34:55.978Z,39.13
2022-08-05T09:38:11.991Z,40.06
2022-08-05T09:40:44.646Z,40.42
2022-08-05T09:43:40.900Z,39.68
2022-08-05T09:46:33.798Z,39.63
2022-08-05T09:49:54.417Z,40.73
2022-08-05T09:52:31.386Z,40.15
2022-08-05T09:55:57.297Z,40.04
2022-08-05T09:58:17.350Z,40.40
2022-08-05T10:01:13.337Z,40.39
2022-08-05T10:04:10.031Z,39.90
2022-08-05T10:06:58.904Z,40.05
2022-08-05T10:09:44.909Z,40.70
2022-08-05T10:12:33.374Z,40.90
2022-08-05T10:15:27.875Z,40.80
2022-08-05T10:18:20.395Z,40.81
2022-08-05T10:21:08.339Z,40.71
2022-08-05T10:23:59.235Z,40.78
2022-08-05T10:26:37.552Z,41.47
2022-08-05T10:31:20.121Z,42.61
2022-08-05T10:32:54.992Z,43.36
2022-08-05T10:35:33.652Z,41.56
2022-08-05T10:38:11.840Z,40.52
2022-08-05T10:41:03.098Z,41.06
2022-08-05T10:43:57.556Z,40.86
2022-08-05T10:49:48.959Z,40.48
2022-08-05T10:52:52.442Z,40.30
2022-08-05T10:56:03.330Z,40.30
2022-08-05T10:58:35.877Z,40.03
2022-08-05T11:01:11.530Z,40.06
2022-08-05T11:04:17.575Z,40.51
2022-08-05T11:07:16.522Z,40.64
2022-08-05T11:10:09.538Z,40.30
2022-08-05T11:12:55.029Z,39.67
2022-08-05T11:16:00.254Z,39.61
2022-08-05T11:18:36.762Z,38.91
2022-08-05T11:21:48.796Z,39.39
2022-08-05T11:24:29.870Z,39.37
2022-08-05T11:27:51.722Z,38.91
2022-08-05T11:30:33.191Z,38.39
2022-08-05T11:33:34.505Z,37.93
2022-08-05T11:36:43.004Z,37.76
2022-08-05T11:39:48.299Z,38.18
2022-08-05T11:42:30.298Z,37.05
2022-08-05T11:45:23.198Z,36.26
2022-08-05T11:48:12.864Z,37.31
2022-08-05T11:50:52.166Z,37.45
2022-08-05T11:53:29.001Z,36.87
2022-08-05T11:56:17.201Z,36.41
2022-08-05T11:58:54.812Z,35.84
2022-08-05T12:01:30.729Z,37.80
2022-08-05T12:04:07.268Z,36.25
2022-08-05T12:06:48.748Z,36.26
2022-08-05T12:09:52.645Z,36.63
2022-08-05T12:12:29.225Z,35.46
2022-08-05T12:15:05.864Z,35.79
2022-08-05T12:18:03.999Z,35.23
2022-08-05T12:20:40.654Z,36.18
2022-08-05T12:23:17.658Z,36.53
2022-08-05T12:25:58.549Z,37.76
2022-08-05T12:28:38.249Z,38.47
2022-08-05T12:31:23.351Z,37.73
2022-08-05T12:34:20.588Z,37.21
2022-08-05T12:37:01.491Z,38.25
2022-08-05T12:39:41.187Z,37.76
2022-08-05T12:42:25.292Z,38.11
2022-08-05T12:45:11.271Z,38.16
2022-08-05T12:48:01.559Z,37.89
2022-08-05T12:50:44.131Z,37.67
2022-08-05T12:53:23.108Z,37.37
2022-08-05T12:56:35.181Z,37.73
2022-08-05T12:59:27.418Z,36.82
2022-08-05T13:02:10.731Z,37.65
2022-08-05T13:04:54.481Z,38.14
2022-08-05T13:07:57.688Z,36.78
2022-08-05T13:10:28.747Z,36.95
2022-08-05T13:13:09.174Z,37.12
2022-08-05T13:15:51.139Z,37.66
2022-08-05T13:18:37.916Z,37.40
2022-08-05T13:21:14.149Z,36.47
2022-08-05T13:23:52.136Z,36.85
2022-08-05T13:26:30.255Z,36.88
2022-08-05T13:29:06.693Z,36.66
2022-08-05T13:32:05.031Z,35.90
2022-08-05T13:34:40.825Z,35.71
2022-08-05T13:37:34.489Z,36.13
2022-08-05T13:40:35.530Z,36.82
2022-08-05T13:43:12.016Z,36.97
2022-08-05T13:45:48.332Z,36.99
2022-08-05T13:48:57.336Z,36.21
2022-08-05T13:51:36.679Z,36.26
2022-08-05T13:54:21.040Z,36.82
2022-08-05T13:57:01.106Z,36.12
2022-08-05T13:59:37.506Z,35.65
2022-08-05T14:02:33.806Z,36.62
2022-08-05T14:05:11.910Z,36.65
2022-08-05T14:07:59.815Z,36.39
2022-08-05T14:10:41.962Z,36.59
2022-08-05T14:13:17.874Z,36.53
2022-08-05T14:16:04.634Z,36.49
2022-08-05T14:18:45.390Z,36.57
2022-08-05T14:22:07.137Z,35.97
2022-08-05T14:24:19.536Z,35.61
2022-08-05T14:27:17.711Z,35.92
2022-08-05T14:29:52.673Z,35.64
2022-08-05T14:32:31.232Z,34.93
2022-08-05T14:35:10.620Z,35.42
2022-08-05T14:37:49.892Z,35.58
2022-08-05T14:40:27.174Z,35.49
2022-08-05T14:43:03.035Z,35.49
2022-08-05T14:45:39.082Z,34.65
2022-08-05T14:48:33.259Z,35.62
2022-08-05T14:51:10.141Z,35.25
2022-08-05T14:54:26.413Z,35.04
2022-08-05T14:56:48.938Z,34.64
2022-08-05T14:59:29.134Z,35.56
2022-08-05T15:02:15.787Z,35.52
2022-08-05T15:04:52.957Z,35.01
2022-08-05T15:08:08.996Z,34.90
2022-08-05T15:10:28.875Z,34.92
2022-08-05T15:13:05.611Z,35.11
2022-08-05T15:15:55.137Z,35.24
2022-08-05T15:18:34.241Z,35.26
2022-08-05T15:21:13.943Z,35.37
2022-08-05T15:23:50.177Z,35.14
2022-08-05T15:26:32.170Z,35.17
2022-08-05T15:29:08.744Z,35.10
2022-08-05T15:31:49.739Z,35.17
2022-08-05T15:34:32.105Z,35.45
2022-08-05T15:37:15.578Z,35.72
2022-08-05T15:41:01.993Z,35.90
2022-08-05T15:42:55.838Z,36.10
2022-08-05T15:45:38.248Z,36.22
2022-08-05T15:48:15.770Z,36.17
2022-08-05T15:50:52.194Z,36.18
2022-08-05T15:53:38.338Z,36.26
2022-08-05T15:56:27.262Z,36.16
2022-08-05T15:59:06.802Z,36.43
2022-08-05T16:01:52.741Z,36.25
2022-08-05T16:04:29.473Z,36.38
2022-08-05T16:07:05.887Z,36.10
2022-08-05T16:09:43.562Z,36.59
2022-08-05T16:12:20.014Z,36.58
2022-08-05T16:14:56.660Z,36.63
2022-08-05T16:17:32.678Z,36.74
2022-08-05T16:20:12.364Z,37.31
2022-08-05T16:22:48.609Z,37.65
2022-08-05T16:25:32.204Z,37.70
2022-08-05T16:28:11.825Z,37.90
2022-08-05T16:30:47.867Z,37.94
2022-08-05T16:33:27.279Z,37.93
2022-08-05T16:36:04.068Z,38.04
2022-08-05T16:38:41.949Z,38.92
2022-08-05T16:42:14.008Z,38.80
2022-08-05T16:44:16.600Z,39.37
2022-08-05T16:46:55.818Z,39.40
2022-08-05T16:49:32.326Z,39.54
2022-08-05T16:52:09.854Z,39.90
2022-08-05T16:54:47.978Z,40.09
2022-08-05T16:57:26.759Z,40.28
2022-08-05T17:00:25.920Z,40.82
2022-08-05T17:03:19.967Z,41.32
2022-08-05T17:05:59.569Z,41.57
2022-08-05T17:08:53.611Z,41.70
2022-08-05T17:11:31.779Z,41.87
2022-08-05T17:14:37.768Z,42.08
2022-08-05T17:17:15.361Z,42.35
2022-08-05T17:19:53.883Z,42.74
2022-08-05T17:22:32.481Z,42.93
2022-08-05T17:25:34.204Z,43.20
2022-08-05T17:28:09.291Z,43.76
2022-08-05T17:30:50.506Z,43.76
2022-08-05T17:33:28.369Z,43.95
2022-08-05T17:36:33.871Z,44.29
2022-08-05T17:39:24.265Z,44.60
2022-08-05T17:42:17.632Z,44.96
2022-08-05T17:45:18.242Z,45.29
2022-08-05T17:47:58.321Z,45.70
2022-08-05T17:50:35.092Z,46.30
2022-08-05T17:53:11.786Z,46.67
2022-08-05T17:55:47.944Z,47.36
2022-08-05T17:58:32.458Z,47.51
2022-08-05T18:01:09.948Z,48.12
2022-08-05T18:03:58.993Z,48.60
2022-08-05T18:06:40.359Z,49.57
2022-08-05T18:09:22.110Z,50.18
2022-08-05T18:12:05.087Z,50.83
2022-08-05T18:14:43.129Z,51.73
2022-08-05T18:18:00.710Z,52.85
2022-08-05T18:20:18.947Z,53.75
2022-08-05T18:22:57.385Z,54.52
2022-08-05T18:25:33.964Z,55.24
2022-08-05T18:28:12.489Z,55.90
2022-08-05T18:30:53.520Z,56.38
2022-08-05T18:33:37.656Z,56.82
2022-08-05T18:36:27.913Z,57.24
2022-08-05T18:39:09.732Z,57.88
2022-08-05T18:42:06.212Z,58.57
2022-08-05T18:44:49.261Z,59.00
2022-08-05T18:47:31.793Z,59.15
2022-08-05T18:50:45.336Z,59.40
2022-08-05T18:53:25.234Z,60.23
2022-08-05T18:56:02.420Z,60.77
2022-08-05T18:58:48.456Z,61.27
2022-08-05T19:01:33.302Z,61.64
2022-08-05T19:04:24.083Z,61.60
2022-08-05T19:07:00.450Z,61.60
2022-08-05T19:09:40.219Z,61.88
2022-08-05T19:12:17.360Z,62.24
2022-08-05T19:15:00.499Z,62.81
2022-08-05T19:18:08.677Z,63.23
2022-08-05T19:20:35.696Z,63.81
2022-08-05T19:24:05.806Z,64.49
2022-08-05T19:26:11.796Z,64.65
2022-08-05T19:28:48.052Z,64.83
2022-08-05T19:31:24.458Z,65.24
2022-08-05T19:34:01.293Z,65.44
2022-08-05T19:36:38.628Z,65.86
2022-08-05T19:39:19.011Z,66.23
2022-08-05T19:42:06.957Z,66.43
2022-08-05T19:44:46.877Z,66.55
2022-08-05T19:47:23.455Z,66.67
2022-08-05T19:50:02.624Z,66.86
2022-08-05T19:52:39.706Z,67.16
2022-08-05T19:56:15.228Z,67.66
2022-08-05T19:58:28.486Z,68.17
2022-08-05T20:01:06.072Z,68.48
2022-08-05T20:03:42.296Z,68.53
2022-08-05T20:06:29.099Z,68.60
2022-08-05T20:09:13.912Z,68.84
2022-08-05T20:11:51.590Z,69.03
2022-08-05T20:14:27.637Z,69.13
2022-08-05T20:17:06.248Z,69.32
2022-08-05T20:19:42.330Z,69.63
2022-08-05T20:22:18.387Z,69.84
2022-08-05T20:24:56.867Z,69.84
2022-08-05T20:27:41.745Z,69.99
2022-08-05T20:30:19.768Z,70.16
2022-08-05T20:32:56.261Z,70.31
2022-08-05T20:35:32.650Z,70.37
2022-08-05T20:38:22.717Z,70.39
2022-08-05T20:41:04.609Z,70.57
2022-08-05T20:43:59.049Z,70.74
2022-08-05T20:46:37.973Z,70.89
2022-08-05T20:49:14.019Z,71.02
2022-08-05T20:51:53.357Z,71.28
2022-08-05T20:54:43.701Z,71.78
2022-08-05T20:57:43.192Z,71.75
2022-08-05T21:00:44.415Z,71.80
2022-08-05T21:03:20.504Z,71.65
2022-08-05T21:05:56.806Z,71.83
2022-08-05T21:08:41.603Z,71.90
2022-08-05T21:12:09.311Z,72.00
2022-08-05T21:14:14.911Z,72.44
2022-08-05T21:16:51.007Z,72.84
2022-08-05T21:19:27.213Z,72.67
2022-08-05T21:22:04.612Z,72.70
2022-08-05T21:24:48.748Z,72.60
2022-08-05T21:27:27.425Z,72.81
2022-08-05T21:30:03.710Z,72.90
2022-08-05T21:32:39.822Z,73.35
2022-08-05T21:35:29.794Z,73.36
2022-08-05T21:38:06.601Z,73.12
2022-08-05T21:40:43.942Z,72.87
2022-08-05T21:43:24.713Z,72.90
2022-08-05T21:46:01.189Z,73.17
2022-08-05T21:48:40.771Z,72.96
2022-08-05T21:52:16.578Z,70.62
2022-08-05T21:54:13.004Z,71.77
2022-08-05T21:56:51.582Z,72.15
2022-08-05T21:59:54.128Z,67.77
2022-08-05T22:02:27.443Z,71.40
2022-08-05T22:05:04.374Z,73.45
2022-08-05T22:07:57.957Z,73.79
2022-08-05T22:10:35.869Z,70.06
2022-08-05T22:14:33.979Z,71.74
2022-08-05T22:16:32.208Z,73.82
2022-08-05T22:19:15.930Z,74.28
2022-08-05T22:22:01.858Z,74.59
2022-08-05T22:24:56.045Z,74.78
2022-08-05T22:28:10.577Z,74.86
2022-08-05T22:30:56.518Z,75.02
2022-08-05T22:33:56.787Z,74.87
2022-08-05T22:36:29.707Z,75.19
2022-08-05T22:39:09.587Z,74.94
2022-08-05T22:42:10.590Z,75.12
2022-08-05T22:44:47.003Z,74.65
2022-08-05T22:47:30.658Z,74.73
2022-08-05T22:50:20.285Z,74.93
2022-08-05T22:53:00.001Z,75.28
2022-08-05T22:55:56.530Z,75.61
2022-08-05T22:58:32.258Z,76.00
2022-08-05T23:01:09.323Z,75.84
2022-08-05T23:03:58.021Z,75.66
2022-08-05T23:06:35.503Z,75.52
2022-08-05T23:09:27.772Z,75.38
2022-08-05T23:12:09.752Z,75.37
2022-08-05T23:14:47.033Z,75.24
2022-08-05T23:17:34.060Z,75.23
2022-08-05T23:20:17.747Z,75.10
2022-08-05T23:22:55.984Z,75.10
2022-08-05T23:25:54.773Z,75.28
2022-08-05T23:28:30.850Z,75.13
2022-08-05T23:31:16.046Z,75.15
2022-08-05T23:34:04.884Z,75.16
2022-08-05T23:36:44.879Z,75.08
2022-08-05T23:39:23.684Z,75.23
2022-08-05T23:42:14.222Z,75.28
2022-08-05T23:44:54.312Z,75.09
2022-08-05T23:47:33.488Z,75.06
2022-08-05T23:50:11.903Z,75.38
2022-08-05T23:52:51.691Z,75.45
2022-08-05T23:55:31.135Z,75.41
2022-08-05T23:58:07.364Z,75.39
